createdAt,value
2023-02-04T00:00:55.415Z,1.80
2023-02-04T00:03:23.313Z,1.35
2023-02-04T00:05:51.282Z,1.70
2023-02-04T00:08:19.570Z,1.80
2023-02-04T00:10:47.544Z,1.58
2023-02-04T00:13:19.394Z,1.75
2023-02-04T00:15:48.656Z,1.50
2023-02-04T00:18:16.835Z,1.77
2023-02-04T00:20:44.740Z,1.48
2023-02-04T00:23:12.673Z,1.60
2023-02-04T00:25:40.707Z,1.73
2023-02-04T00:28:10.391Z,1.65
2023-02-04T00:30:38.387Z,1.60
2023-02-04T00:33:07.841Z,1.50
2023-02-04T00:35:37.268Z,1.48
2023-02-04T00:38:05.719Z,1.75
2023-02-04T00:40:33.915Z,1.27
2023-02-04T00:43:01.790Z,1.60
2023-02-04T00:45:29.912Z,1.42
2023-02-04T00:47:58.141Z,1.05
2023-02-04T00:50:27.616Z,1.20
2023-02-04T00:52:55.536Z,1.10
2023-02-04T00:55:23.413Z,1.52
2023-02-04T00:57:51.541Z,1.52
2023-02-04T01:00:19.847Z,2.17
2023-02-04T01:02:47.747Z,1.27
2023-02-04T01:05:15.822Z,1.25
2023-02-04T01:07:45.250Z,1.27
2023-02-04T01:10:13.627Z,1.40
2023-02-04T01:12:41.959Z,1.40
2023-02-04T01:15:10.960Z,0.88
2023-02-04T01:17:40.760Z,1.52
2023-02-04T01:20:11.538Z,1.30
2023-02-04T01:22:39.648Z,1.17
2023-02-04T01:25:09.865Z,1.27
2023-02-04T01:27:37.881Z,1.33
2023-02-04T01:30:07.425Z,1.77
2023-02-04T01:32:35.499Z,1.33
2023-02-04T01:35:03.466Z,1.35
2023-02-04T01:37:31.391Z,1.50
2023-02-04T01:39:59.459Z,1.33
2023-02-04T01:42:28.774Z,1.42
2023-02-04T01:44:56.868Z,1.23
2023-02-04T01:47:25.540Z,1.48
2023-02-04T01:49:57.012Z,1.58
2023-02-04T01:52:25.564Z,1.27
2023-02-04T01:54:54.499Z,1.60
2023-02-04T01:57:22.451Z,1.45
2023-02-04T01:59:55.684Z,1.40
2023-02-04T02:02:44.706Z,1.48
2023-02-04T02:05:15.928Z,1.73
2023-02-04T02:07:44.123Z,1.48
2023-02-04T02:10:14.318Z,1.60
2023-02-04T02:12:43.611Z,1.55
2023-02-04T02:15:14.182Z,1.60
2023-02-04T02:17:42.429Z,1.30
2023-02-04T02:20:12.626Z,1.17
2023-02-04T02:22:46.780Z,1.67
2023-02-04T02:25:16.396Z,1.70
2023-02-04T02:27:45.019Z,1.58
2023-02-04T02:30:19.772Z,1.90
2023-02-04T02:32:49.185Z,1.40
2023-02-04T02:35:17.585Z,1.70
2023-02-04T02:37:45.512Z,1.80
2023-02-04T02:40:15.981Z,1.75
2023-02-04T02:42:45.138Z,1.42
2023-02-04T02:45:22.639Z,1.20
2023-02-04T02:47:51.096Z,1.60
2023-02-04T02:50:22.117Z,1.98
2023-02-04T02:52:50.131Z,1.70
2023-02-04T02:55:21.673Z,1.70
2023-02-04T02:57:50.861Z,1.63
2023-02-04T03:00:21.237Z,1.65
2023-02-04T03:02:56.012Z,1.33
2023-02-04T03:05:24.675Z,1.77
2023-02-04T03:07:52.738Z,1.52
2023-02-04T03:10:22.101Z,1.90
2023-02-04T03:12:50.042Z,2.00
2023-02-04T03:15:18.690Z,2.17
2023-02-04T03:17:47.711Z,1.67
2023-02-04T03:20:16.478Z,2.03
2023-02-04T03:22:44.462Z,1.30
2023-02-04T03:25:12.395Z,1.80
2023-02-04T03:27:41.796Z,2.22
2023-02-04T03:30:10.475Z,2.13
2023-02-04T03:32:38.474Z,1.50
2023-02-04T03:35:07.044Z,1.75
2023-02-04T03:37:34.974Z,1.80
2023-02-04T03:40:02.951Z,2.28
2023-02-04T03:42:30.911Z,2.45
2023-02-04T03:45:00.107Z,1.70
2023-02-04T03:47:28.161Z,1.70
2023-02-04T03:49:56.062Z,1.77
2023-02-04T03:52:24.049Z,1.70
2023-02-04T03:54:52.004Z,1.70
2023-02-04T03:57:19.968Z,1.83
2023-02-04T03:59:47.839Z,1.40
2023-02-04T04:02:17.142Z,1.52
2023-02-04T04:04:44.990Z,1.75
2023-02-04T04:07:12.861Z,1.88
2023-02-04T04:09:43.718Z,1.52
2023-02-04T04:12:11.719Z,1.30
2023-02-04T04:14:39.637Z,1.85
2023-02-04T04:17:10.209Z,1.85
2023-02-04T04:19:39.525Z,2.38
2023-02-04T04:22:07.412Z,1.80
2023-02-04T04:24:35.377Z,1.50
2023-02-04T04:27:03.526Z,1.73
2023-02-04T04:29:31.412Z,2.25
2023-02-04T04:31:59.556Z,2.13
2023-02-04T04:34:27.604Z,1.55
2023-02-04T04:36:59.755Z,2.00
2023-02-04T04:39:27.705Z,1.60
2023-02-04T04:41:55.741Z,1.83
2023-02-04T04:44:23.642Z,2.42
2023-02-04T04:46:51.592Z,1.25
2023-02-04T04:49:19.520Z,1.15
2023-02-04T04:51:47.434Z,1.63
2023-02-04T04:54:16.625Z,3.25
2023-02-04T04:56:44.540Z,2.20
2023-02-04T04:59:15.229Z,1.83
2023-02-04T05:01:43.133Z,1.98
2023-02-04T05:04:11.047Z,1.30
2023-02-04T05:06:38.992Z,2.00
2023-02-04T05:09:07.035Z,2.17
2023-02-04T05:11:36.471Z,2.00
2023-02-04T05:14:06.881Z,1.55
2023-02-04T05:16:36.836Z,2.00
2023-02-04T05:19:04.816Z,1.80
2023-02-04T05:21:32.724Z,1.63
2023-02-04T05:24:00.664Z,2.13
2023-02-04T05:26:31.026Z,2.08
2023-02-04T05:29:01.370Z,1.45
2023-02-04T05:31:29.416Z,1.83
2023-02-04T05:33:57.366Z,1.85
2023-02-04T05:36:25.365Z,1.83
2023-02-04T05:38:53.360Z,1.80
2023-02-04T05:41:21.330Z,1.98
2023-02-04T05:43:49.229Z,1.80
2023-02-04T05:46:18.568Z,1.85
2023-02-04T05:48:46.500Z,2.33
2023-02-04T05:51:14.455Z,2.33
2023-02-04T05:53:42.874Z,2.10
2023-02-04T05:56:10.813Z,2.00
2023-02-04T05:58:39.986Z,1.73
2023-02-04T06:01:08.447Z,1.60
2023-02-04T06:03:37.733Z,1.88
2023-02-04T06:06:05.939Z,2.38
2023-02-04T06:08:33.940Z,1.70
2023-02-04T06:11:01.780Z,2.30
2023-02-04T06:13:29.709Z,1.85
2023-02-04T06:15:57.614Z,1.88
2023-02-04T06:18:25.601Z,2.10
2023-02-04T06:20:54.988Z,2.47
2023-02-04T06:23:22.819Z,2.00
2023-02-04T06:25:50.759Z,2.50
2023-02-04T06:28:19.176Z,2.40
2023-02-04T06:30:50.603Z,1.95
2023-02-04T06:33:18.593Z,2.33
2023-02-04T06:35:46.475Z,2.85
2023-02-04T06:38:15.664Z,2.58
2023-02-04T06:40:43.612Z,2.75
2023-02-04T06:43:11.695Z,3.08
2023-02-04T06:45:41.352Z,2.65
2023-02-04T06:48:10.880Z,2.38
2023-02-04T06:50:38.766Z,2.90
2023-02-04T06:53:06.718Z,2.70
2023-02-04T06:55:35.989Z,3.08
2023-02-04T06:58:04.090Z,2.88
2023-02-04T07:00:34.167Z,2.92
2023-02-04T07:03:02.867Z,3.10
2023-02-04T07:05:31.548Z,3.50
2023-02-04T07:08:00.051Z,3.25
2023-02-04T07:10:28.365Z,4.82
2023-02-04T07:12:58.125Z,3.63
2023-02-04T07:15:26.670Z,3.45
2023-02-04T07:17:55.074Z,3.78
2023-02-04T07:20:23.457Z,3.67
2023-02-04T07:22:52.271Z,3.80
2023-02-04T07:25:20.576Z,4.32
2023-02-04T07:27:49.021Z,3.22
2023-02-04T07:30:20.296Z,3.72
2023-02-04T07:32:48.526Z,3.67
2023-02-04T07:35:17.727Z,4.43
2023-02-04T07:37:47.206Z,4.28
2023-02-04T07:40:15.628Z,3.55
2023-02-04T07:42:43.979Z,4.70
2023-02-04T07:45:12.390Z,5.35
2023-02-04T07:47:42.023Z,5.93
2023-02-04T07:50:10.779Z,5.90
2023-02-04T07:52:38.880Z,5.07
2023-02-04T07:55:07.714Z,5.45
2023-02-04T07:57:35.710Z,5.05
2023-02-04T08:00:03.897Z,4.75
2023-02-04T08:02:31.870Z,5.07
2023-02-04T08:05:03.025Z,3.83
2023-02-04T08:07:30.935Z,4.63
2023-02-04T08:09:58.796Z,4.03
2023-02-04T08:12:26.757Z,4.70
2023-02-04T08:14:54.734Z,4.55
2023-02-04T08:17:22.736Z,5.88
2023-02-04T08:19:50.747Z,4.90
2023-02-04T08:22:20.038Z,5.70
2023-02-04T08:24:48.093Z,4.35
2023-02-04T08:27:16.339Z,4.85
2023-02-04T08:29:47.857Z,3.65
2023-02-04T08:32:18.684Z,4.35
2023-02-04T08:34:51.434Z,4.85
2023-02-04T08:37:20.827Z,3.80
2023-02-04T08:39:53.621Z,3.60
2023-02-04T08:42:21.545Z,4.43
2023-02-04T08:44:49.459Z,4.25
2023-02-04T08:47:17.456Z,4.15
2023-02-04T08:49:45.330Z,4.32
2023-02-04T08:52:13.338Z,4.30
2023-02-04T08:54:42.837Z,3.70
2023-02-04T08:57:10.778Z,4.22
2023-02-04T08:59:38.767Z,4.53
2023-02-04T09:02:11.499Z,4.75
2023-02-04T09:04:39.564Z,4.75
2023-02-04T09:07:07.578Z,3.85
2023-02-04T09:09:35.480Z,4.75
2023-02-04T09:12:04.834Z,4.20
2023-02-04T09:14:35.155Z,3.78
2023-02-04T09:17:04.539Z,3.40
2023-02-04T09:19:37.898Z,4.63
2023-02-04T09:22:07.725Z,3.08
2023-02-04T09:24:36.025Z,4.63
2023-02-04T09:27:11.630Z,3.28
2023-02-04T09:29:40.280Z,3.58
2023-02-04T09:32:08.617Z,4.13
2023-02-04T09:34:39.274Z,4.45
2023-02-04T09:37:07.228Z,3.33
2023-02-04T09:39:35.113Z,3.58
2023-02-04T09:42:03.030Z,3.85
2023-02-04T09:44:34.629Z,3.72
2023-02-04T09:47:02.742Z,3.80
2023-02-04T09:49:30.838Z,3.85
2023-02-04T09:51:58.913Z,3.42
2023-02-04T09:54:27.197Z,3.28
2023-02-04T09:56:55.394Z,3.40
2023-02-04T09:59:24.702Z,3.97
2023-02-04T10:02:01.720Z,3.50
2023-02-04T10:04:30.296Z,4.07
2023-02-04T10:06:59.513Z,3.17
2023-02-04T10:09:27.594Z,3.17
2023-02-04T10:11:55.827Z,4.65
2023-02-04T10:14:25.454Z,3.85
2023-02-04T10:16:59.863Z,3.40
2023-02-04T10:19:32.016Z,3.83
2023-02-04T10:22:00.507Z,3.15
2023-02-04T10:24:30.620Z,2.72
2023-02-04T10:27:09.435Z,3.42
2023-02-04T10:29:37.748Z,3.10
2023-02-04T10:32:07.589Z,2.83
2023-02-04T10:34:39.672Z,2.85
2023-02-04T10:37:22.218Z,3.08
2023-02-04T10:39:50.322Z,2.70
2023-02-04T10:42:23.477Z,3.13
2023-02-04T10:44:51.963Z,4.57
2023-02-04T10:47:23.009Z,2.58
2023-02-04T10:49:59.801Z,3.35
2023-02-04T10:52:34.947Z,2.67
2023-02-04T10:55:04.755Z,2.95
2023-02-04T10:57:36.244Z,2.75
2023-02-04T11:00:11.946Z,3.42
2023-02-04T11:02:46.504Z,3.65
2023-02-04T11:05:17.911Z,2.67
2023-02-04T11:07:47.258Z,3.15
2023-02-04T11:10:17.068Z,2.95
2023-02-04T11:12:47.676Z,3.25
2023-02-04T11:15:38.798Z,3.25
2023-02-04T11:18:10.545Z,3.45
2023-02-04T11:20:40.736Z,3.22
2023-02-04T11:23:32.193Z,3.28
2023-02-04T11:26:09.278Z,3.63
2023-02-04T11:28:50.051Z,3.15
2023-02-04T11:31:43.449Z,3.78
2023-02-04T11:34:28.462Z,2.95
2023-02-04T11:37:16.781Z,2.90
2023-02-04T11:39:46.678Z,3.47
2023-02-04T11:42:20.856Z,3.13
2023-02-04T11:44:59.238Z,2.65
2023-02-04T11:47:34.969Z,2.47
2023-02-04T11:50:14.180Z,2.60
2023-02-04T11:52:42.264Z,3.13
2023-02-04T11:55:14.835Z,3.17
2023-02-04T12:00:16.155Z,3.55
2023-02-04T12:02:46.854Z,2.17
2023-02-04T12:05:20.402Z,3.00
2023-02-04T12:07:49.613Z,3.65
2023-02-04T12:10:26.550Z,2.67
2023-02-04T12:12:58.163Z,2.78
2023-02-04T12:15:35.866Z,4.47
2023-02-04T12:18:07.215Z,2.95
2023-02-04T12:20:37.070Z,2.65
2023-02-04T12:23:08.455Z,2.72
2023-02-04T12:25:36.326Z,3.05
2023-02-04T12:28:04.341Z,2.88
2023-02-04T12:30:32.166Z,2.33
2023-02-04T12:33:00.201Z,2.28
2023-02-04T12:35:30.696Z,2.78
2023-02-04T12:38:00.410Z,2.95
2023-02-04T12:40:28.606Z,2.15
2023-02-04T12:42:56.660Z,3.28
2023-02-04T12:45:24.529Z,3.05
2023-02-04T12:47:52.452Z,2.65
2023-02-04T12:50:22.635Z,2.72
2023-02-04T12:52:51.991Z,2.50
2023-02-04T12:55:22.330Z,2.90
2023-02-04T12:57:50.352Z,4.18
2023-02-04T13:00:22.168Z,3.03
2023-02-04T13:02:50.178Z,2.63
2023-02-04T13:05:18.609Z,2.80
2023-02-04T13:07:46.530Z,2.65
2023-02-04T13:10:15.293Z,2.63
2023-02-04T13:12:46.261Z,4.03
2023-02-04T13:15:14.406Z,2.67
2023-02-04T13:17:42.259Z,3.05
2023-02-04T13:20:12.766Z,3.00
2023-02-04T13:22:40.835Z,2.42
2023-02-04T13:25:09.547Z,2.63
2023-02-04T13:27:37.452Z,4.07
2023-02-04T13:30:08.706Z,3.33
2023-02-04T13:32:36.567Z,2.50
2023-02-04T13:35:04.594Z,2.65
2023-02-04T13:37:32.600Z,3.00
2023-02-04T13:40:00.481Z,2.40
2023-02-04T13:42:29.284Z,2.92
2023-02-04T13:44:57.162Z,2.22
2023-02-04T13:47:26.792Z,2.90
2023-02-04T13:49:54.711Z,1.88
2023-02-04T13:52:22.733Z,2.70
2023-02-04T13:54:50.629Z,2.25
2023-02-04T13:57:18.656Z,2.17
2023-02-04T13:59:49.116Z,2.25
2023-02-04T14:02:17.242Z,2.45
2023-02-04T14:04:49.709Z,2.67
2023-02-04T14:07:18.721Z,3.55
2023-02-04T14:09:48.214Z,2.10
2023-02-04T14:12:16.175Z,2.13
2023-02-04T14:14:44.132Z,2.53
2023-02-04T14:17:12.059Z,3.67
2023-02-04T14:19:47.306Z,2.40
2023-02-04T14:22:22.216Z,2.28
2023-02-04T14:24:50.333Z,2.45
2023-02-04T14:27:18.299Z,4.15
2023-02-04T14:29:46.271Z,3.75
2023-02-04T14:32:14.187Z,2.88
2023-02-04T14:34:42.057Z,4.70
2023-02-04T14:37:10.343Z,2.65
2023-02-04T14:39:42.756Z,3.22
2023-02-04T14:42:11.917Z,3.05
2023-02-04T14:44:40.210Z,2.85
2023-02-04T14:47:08.287Z,2.90
2023-02-04T14:49:38.146Z,2.78
2023-02-04T14:52:11.521Z,3.55
2023-02-04T14:54:41.084Z,2.95
2023-02-04T14:57:12.077Z,2.60
2023-02-04T14:59:40.111Z,2.80
2023-02-04T15:02:09.063Z,3.65
2023-02-04T15:04:37.082Z,2.30
2023-02-04T15:07:08.222Z,1.92
2023-02-04T15:09:36.468Z,3.10
2023-02-04T15:12:08.122Z,2.05
2023-02-04T15:14:36.137Z,2.83
2023-02-04T15:17:04.534Z,2.40
2023-02-04T15:19:35.238Z,2.38
2023-02-04T15:22:03.360Z,3.90
2023-02-04T15:24:32.972Z,2.80
2023-02-04T15:27:01.116Z,2.65
2023-02-04T15:29:30.633Z,2.30
2023-02-04T15:31:58.808Z,1.92
2023-02-04T15:34:26.806Z,2.15
2023-02-04T15:36:54.751Z,2.42
2023-02-04T15:39:22.987Z,2.65
2023-02-04T15:41:57.174Z,3.13
2023-02-04T15:44:26.679Z,1.85
2023-02-04T15:46:57.957Z,2.55
2023-02-04T15:49:29.249Z,2.05
2023-02-04T15:51:57.831Z,2.33
2023-02-04T15:54:28.572Z,1.98
2023-02-04T15:57:02.098Z,2.60
2023-02-04T15:59:30.053Z,1.90
2023-02-04T16:01:59.331Z,2.45
2023-02-04T16:04:27.309Z,2.45
2023-02-04T16:06:58.935Z,1.90
2023-02-04T16:09:28.117Z,2.63
2023-02-04T16:11:58.756Z,2.40
2023-02-04T16:14:32.297Z,2.40
2023-02-04T16:17:05.511Z,2.88
2023-02-04T16:19:33.536Z,2.92
2023-02-04T16:22:01.753Z,3.25
2023-02-04T16:24:30.222Z,2.78
2023-02-04T16:27:00.024Z,3.08
2023-02-04T16:29:30.366Z,3.50
2023-02-04T16:31:58.446Z,2.85
2023-02-04T16:34:29.229Z,2.83
2023-02-04T16:36:57.151Z,3.03
2023-02-04T16:39:25.284Z,3.65
2023-02-04T16:41:53.488Z,3.08
2023-02-04T16:44:21.458Z,2.45
2023-02-04T16:46:50.806Z,2.47
2023-02-04T16:49:20.520Z,2.88
2023-02-04T16:51:51.771Z,2.45
2023-02-04T16:54:19.697Z,2.67
2023-02-04T16:56:47.588Z,2.42
2023-02-04T16:59:17.555Z,2.78
2023-02-04T17:01:45.631Z,2.45
2023-02-04T17:04:15.354Z,2.33
2023-02-04T17:06:43.210Z,2.20
2023-02-04T17:09:12.613Z,2.75
2023-02-04T17:11:43.326Z,2.80
2023-02-04T17:14:15.650Z,3.22
2023-02-04T17:16:44.142Z,2.63
2023-02-04T17:19:13.062Z,2.70
2023-02-04T17:21:41.579Z,3.10
2023-02-04T17:24:11.290Z,2.90
2023-02-04T17:26:41.417Z,2.53
2023-02-04T17:29:11.460Z,3.13
2023-02-04T17:31:39.702Z,3.05
2023-02-04T17:34:09.864Z,2.83
2023-02-04T17:36:39.063Z,4.07
2023-02-04T17:39:07.481Z,4.32
2023-02-04T17:41:35.755Z,3.92
2023-02-04T17:44:05.317Z,3.70
2023-02-04T17:46:34.317Z,3.67
2023-02-04T17:49:02.459Z,3.28
2023-02-04T17:51:30.527Z,3.60
2023-02-04T17:54:00.791Z,4.72
2023-02-04T17:56:29.181Z,3.47
2023-02-04T17:58:57.958Z,3.17
2023-02-04T18:01:28.115Z,3.63
2023-02-04T18:03:56.708Z,3.30
2023-02-04T18:06:29.546Z,3.67
2023-02-04T18:09:04.505Z,3.78
2023-02-04T18:11:38.828Z,4.18
2023-02-04T18:14:14.021Z,3.88
2023-02-04T18:16:47.074Z,4.00
2023-02-04T18:19:19.397Z,3.60
2023-02-04T18:21:48.549Z,3.42
2023-02-04T18:24:19.497Z,3.38
2023-02-04T18:26:49.670Z,3.10
2023-02-04T18:29:30.567Z,4.30
2023-02-04T18:32:05.315Z,3.50
2023-02-04T18:34:36.722Z,3.63
2023-02-04T18:37:30.553Z,4.78
2023-02-04T18:40:21.010Z,4.15
2023-02-04T18:42:52.264Z,3.72
2023-02-04T18:45:28.947Z,3.90
2023-02-04T18:47:59.994Z,4.85
2023-02-04T18:50:34.073Z,3.70
2023-02-04T18:53:11.553Z,3.30
2023-02-04T18:55:44.835Z,3.58
2023-02-04T18:58:29.083Z,3.50
2023-02-04T19:01:02.190Z,3.42
2023-02-04T19:03:42.277Z,3.33
2023-02-04T19:06:28.386Z,3.42
2023-02-04T19:09:14.423Z,2.97
2023-02-04T19:11:45.367Z,3.10
2023-02-04T19:14:19.441Z,2.80
2023-02-04T19:16:48.287Z,3.33
2023-02-04T19:19:38.066Z,3.30
2023-02-04T19:22:18.514Z,2.60
2023-02-04T19:24:49.137Z,2.85
2023-02-04T19:27:30.118Z,2.20
2023-02-04T19:30:03.035Z,3.30
2023-02-04T19:32:44.448Z,2.70
2023-02-04T19:35:27.639Z,2.85
2023-02-04T19:38:14.055Z,2.78
2023-02-04T19:40:43.618Z,3.63
2023-02-04T19:43:25.728Z,2.95
2023-02-04T19:45:54.858Z,3.17
2023-02-04T19:48:28.181Z,2.80
2023-02-04T19:51:03.065Z,2.70
2023-02-04T19:53:34.587Z,2.78
2023-02-04T19:56:05.417Z,2.63
2023-02-04T19:58:42.718Z,2.35
2023-02-04T20:01:17.117Z,2.90
2023-02-04T20:03:49.563Z,2.97
2023-02-04T20:12:09.953Z,3.22
2023-02-04T20:14:57.396Z,2.78
2023-02-04T20:17:38.010Z,2.70
2023-02-04T20:20:32.708Z,3.17
2023-02-04T20:23:15.999Z,2.92
2023-02-04T20:25:48.252Z,3.80
2023-02-04T20:28:43.197Z,4.53
2023-02-04T20:31:24.035Z,5.75
2023-02-04T20:33:55.969Z,3.97
2023-02-04T20:36:42.227Z,3.97
2023-02-04T20:39:33.966Z,3.60
2023-02-04T20:42:26.267Z,4.38
2023-02-04T20:44:55.627Z,3.53
2023-02-04T20:47:29.655Z,2.80
2023-02-04T20:49:59.898Z,3.00
2023-02-04T20:53:20.140Z,3.15
2023-02-04T20:55:50.779Z,3.00
2023-02-04T20:58:22.709Z,3.33
2023-02-04T21:00:54.050Z,3.15
2023-02-04T21:03:39.754Z,4.18
2023-02-04T21:06:25.211Z,3.78
2023-02-04T21:08:54.203Z,3.35
2023-02-04T21:11:22.974Z,3.03
2023-02-04T21:13:55.103Z,2.65
2023-02-04T21:16:23.291Z,3.20
2023-02-04T21:18:53.888Z,2.70
2023-02-04T21:21:24.517Z,3.03
2023-02-04T21:23:52.578Z,3.33
2023-02-04T21:26:20.609Z,3.33
2023-02-04T21:28:57.081Z,3.08
2023-02-04T21:31:26.961Z,2.47
2023-02-04T21:33:55.292Z,3.13
2023-02-04T21:36:24.446Z,2.90
2023-02-04T21:38:52.401Z,2.38
2023-02-04T21:41:20.770Z,2.67
2023-02-04T21:43:56.955Z,2.67
2023-02-04T21:46:26.367Z,2.85
2023-02-04T21:48:54.325Z,3.20
2023-02-04T21:51:23.787Z,3.17
2023-02-04T21:53:51.660Z,3.88
2023-02-04T21:56:22.260Z,4.75
2023-02-04T21:58:50.186Z,4.00
2023-02-04T22:01:18.442Z,5.45
2023-02-04T22:03:47.951Z,5.72
2023-02-04T22:06:15.981Z,7.05
2023-02-04T22:08:43.946Z,6.03
2023-02-04T22:11:13.695Z,6.05
2023-02-04T22:13:41.645Z,6.68
2023-02-04T22:16:09.962Z,7.05
2023-02-04T22:18:41.763Z,7.65
2023-02-04T22:21:11.116Z,7.68
2023-02-04T22:23:39.679Z,6.68
2023-02-04T22:26:07.738Z,4.78
2023-02-04T22:28:35.710Z,5.05
2023-02-04T22:31:03.904Z,4.63
2023-02-04T22:33:33.620Z,4.15
2023-02-04T22:36:01.594Z,4.85
2023-02-04T22:38:30.848Z,4.57
2023-02-04T22:40:58.725Z,4.68
2023-02-04T22:43:26.606Z,3.75
2023-02-04T22:45:54.512Z,4.07
2023-02-04T22:48:22.767Z,4.50
2023-02-04T22:50:50.636Z,4.70
2023-02-04T22:53:18.848Z,4.45
2023-02-04T22:55:48.183Z,5.18
2023-02-04T22:58:16.099Z,6.10
2023-02-04T23:00:44.469Z,6.85
2023-02-04T23:03:12.447Z,6.90
2023-02-04T23:05:40.319Z,5.90
2023-02-04T23:08:08.386Z,5.93
2023-02-04T23:10:38.119Z,6.28
2023-02-04T23:13:08.211Z,6.15
2023-02-04T23:15:36.287Z,6.40
2023-02-04T23:18:04.621Z,6.93
2023-02-04T23:20:37.150Z,6.43
2023-02-04T23:25:34.684Z,5.75
2023-02-04T23:28:02.784Z,6.53
2023-02-04T23:30:32.314Z,6.28
2023-02-04T23:33:00.389Z,6.13
2023-02-04T23:35:28.713Z,5.47
2023-02-04T23:37:56.625Z,5.75
2023-02-04T23:40:25.922Z,5.38
2023-02-04T23:42:54.126Z,5.50
2023-02-04T23:45:22.036Z,5.05
2023-02-04T23:47:51.659Z,5.57
2023-02-04T23:50:19.881Z,5.05
2023-02-04T23:52:48.104Z,4.78
2023-02-04T23:55:18.709Z,5.25
2023-02-04T23:57:49.512Z,4.47
